Time;durP1;ratioP1;P1;durP2;ratioP2;P2;SDS_P1;SDS_P2;PMS_P1;PMS_P2;Temp;Humidity;BMP_temperature;BMP_pressure;BME280_temperature;BME280_humidity;BME280_pressure;Samples;Min_cycle;Max_cycle;Signal;HPM_P1;HPM_P2
2023/03/02 00:01:32;;;;;;;;;;;-0.80;99.90;;;;;;5096965;28;19920;-49
2023/03/02 00:03:59;;;;;;;;;;;-0.80;99.90;;;;;;5093579;28;19985;-51
2023/03/02 00:06:27;;;;;;;;;;;-0.80;99.90;;;;;;5096978;28;19919;-50
2023/03/02 00:08:54;;;;;;;;;;;-0.70;99.90;;;;;;5103335;28;19920;-50
2023/03/02 00:11:21;;;;;;;;;;;-0.60;99.90;;;;;;5101213;28;20394;-50
2023/03/02 00:13:48;;;;;;;;;;;-0.60;99.90;;;;;;5093808;28;19927;-51
2023/03/02 00:16:14;;;;;;;;;;;-0.60;99.90;;;;;;5100468;28;19924;-50
2023/03/02 00:18:41;;;;;;;;;;;-0.70;99.90;;;;;;5091677;28;19959;-50
2023/03/02 00:21:09;;;;;;;;;;;-0.80;99.90;;;;;;5090522;28;19982;-51
2023/03/02 00:23:37;;;;;;;;;;;-0.80;99.90;;;;;;5091703;28;19920;-52
2023/03/02 00:26:06;;;;;;;;;;;-0.70;99.90;;;;;;5091586;28;19924;-50
2023/03/02 00:28:33;;;;;;;;;;;-0.70;99.90;;;;;;5090681;28;20464;-50
2023/03/02 00:31:03;;;;;;;;;;;-0.70;99.90;;;;;;5078080;28;19924;-52
2023/03/02 00:33:30;;;;;;;;;;;-0.60;99.90;;;;;;5092205;28;20286;-53
2023/03/02 00:35:56;;;;;;;;;;;-0.60;99.90;;;;;;5090717;28;19924;-52
2023/03/02 00:38:23;;;;;;;;;;;-0.60;99.90;;;;;;5091345;28;20413;-51
2023/03/02 00:40:50;;;;;;;;;;;-0.50;99.90;;;;;;5090837;28;20019;-51
2023/03/02 00:43:17;;;;;;;;;;;-0.50;99.90;;;;;;5092018;28;20406;-51
2023/03/02 00:45:43;;;;;;;;;;;-0.50;99.90;;;;;;5097626;28;20451;-51
2023/03/02 00:48:10;;;;;;;;;;;-0.50;99.90;;;;;;5073646;28;19967;-50
2023/03/02 00:50:39;;;;;;;;;;;-0.50;99.90;;;;;;5071774;28;19974;-51
2023/03/02 00:53:08;;;;;;;;;;;-0.60;99.90;;;;;;5091607;28;20340;-49
2023/03/02 00:55:35;;;;;;;;;;;-0.60;99.90;;;;;;5090316;28;19920;-50
2023/03/02 00:58:02;;;;;;;;;;;-0.60;99.90;;;;;;5090631;28;19930;-51
2023/03/02 01:00:30;;;;;;;;;;;-0.60;99.90;;;;;;5071689;28;20338;-52
2023/03/02 01:03:01;;;;;;;;;;;-0.70;99.90;;;;;;5073399;28;20337;-51
2023/03/02 01:05:28;;;;;;;;;;;-0.80;99.90;;;;;;5089145;28;19955;-50
2023/03/02 01:07:54;;;;;;;;;;;-1.00;99.90;;;;;;5090360;28;19928;-51
2023/03/02 01:10:21;;;;;;;;;;;-1.00;99.90;;;;;;5090162;28;20451;-49
2023/03/02 01:13:35;;;;;;;;;;;-0.90;99.90;;;;;;5098181;22;19928;-53
2023/03/02 01:19:35;;;;;;;;;;;-0.80;99.90;;;;;;5023385;28;19924;-49
2023/03/02 01:22:03;;;;;;;;;;;-0.60;99.90;;;;;;5055747;28;19978;-49
2023/03/02 01:24:31;;;;;;;;;;;-0.70;99.90;;;;;;5047513;28;19920;-49
2023/03/02 01:26:58;;;;;;;;;;;-0.70;99.90;;;;;;5039950;28;19920;-49
2023/03/02 01:29:24;;;;;;;;;;;-0.70;99.90;;;;;;5050497;28;19951;-50
2023/03/02 01:31:51;;;;;;;;;;;-0.60;99.90;;;;;;5033137;28;20398;-49
2023/03/02 01:34:18;;;;;;;;;;;-0.60;99.90;;;;;;5050356;28;19928;-50
2023/03/02 01:36:45;;;;;;;;;;;-0.60;99.90;;;;;;5050170;28;19924;-51
2023/03/02 01:39:15;;;;;;;;;;;-0.60;99.90;;;;;;5040273;28;19982;-49
2023/03/02 01:41:43;;;;;;;;;;;-0.60;99.90;;;;;;5033383;28;19921;-50
2023/03/02 01:44:28;;;;;;;;;;;-0.60;99.90;;;;;;5049750;28;20445;-53
2023/03/02 01:46:55;;;;;;;;;;;-0.60;99.90;;;;;;5033227;28;19929;-48
2023/03/02 01:49:22;;;;;;;;;;;-0.60;99.90;;;;;;5032860;28;19925;-49
2023/03/02 01:51:56;;;;;;;;;;;-0.60;99.90;;;;;;5033450;28;19920;-50
2023/03/02 01:54:24;;;;;;;;;;;-0.80;99.90;;;;;;5033377;28;19940;-50
2023/03/02 01:57:00;;;;;;;;;;;-0.80;99.90;;;;;;5058375;28;20018;-50
2023/03/02 01:59:28;;;;;;;;;;;-0.80;99.90;;;;;;5032429;28;19921;-48
2023/03/02 02:01:57;;;;;;;;;;;-0.80;99.90;;;;;;5034952;28;20019;-51
2023/03/02 02:04:25;;;;;;;;;;;-0.80;99.90;;;;;;5035809;28;19970;-49
2023/03/02 02:06:58;;;;;;;;;;;-0.80;99.90;;;;;;5015245;28;20405;-50
2023/03/02 02:09:26;;;;;;;;;;;-1.00;99.90;;;;;;5036510;28;19924;-50
2023/03/02 02:11:54;;;;;;;;;;;-1.10;99.90;;;;;;5035304;28;19964;-49
2023/03/02 02:14:21;;;;;;;;;;;-1.20;99.90;;;;;;5037633;28;19921;-49
2023/03/02 02:16:47;;;;;;;;;;;-1.10;99.90;;;;;;5036735;28;19931;-49
2023/03/02 02:19:31;;;;;;;;;;;-1.10;99.90;;;;;;5052828;28;20294;-51
2023/03/02 02:21:57;;;;;;;;;;;-1.10;99.90;;;;;;5052621;28;19920;-50
2023/03/02 02:24:29;;;;;;;;;;;-1.00;99.90;;;;;;5037413;28;19921;-49
2023/03/02 02:26:56;;;;;;;;;;;-1.00;99.90;;;;;;5056930;28;19924;-49
2023/03/02 02:29:25;;;;;;;;;;;-1.00;99.90;;;;;;5053030;28;19920;-49
2023/03/02 02:31:55;;;;;;;;;;;-1.00;99.90;;;;;;5042851;28;20544;-51
2023/03/02 02:34:33;;;;;;;;;;;-0.90;99.90;;;;;;5073796;28;19951;-49
2023/03/02 02:37:08;;;;;;;;;;;-0.90;99.90;;;;;;5057235;28;19998;-49
2023/03/02 02:39:37;;;;;;;;;;;-1.00;99.90;;;;;;5052285;28;20302;-51
2023/03/02 02:42:09;;;;;;;;;;;-1.00;99.90;;;;;;5036343;28;19921;-50
2023/03/02 02:44:35;;;;;;;;;;;-1.10;99.90;;;;;;5033872;28;19962;-49
2023/03/02 02:47:02;;;;;;;;;;;-1.10;99.90;;;;;;5036015;28;20409;-51
2023/03/02 02:49:31;;;;;;;;;;;-1.10;99.90;;;;;;5052499;28;19924;-49
2023/03/02 02:51:58;;;;;;;;;;;-1.10;99.90;;;;;;5051803;28;19925;-49
2023/03/02 02:54:25;;;;;;;;;;;-1.00;99.90;;;;;;5053832;28;20349;-49
2023/03/02 02:56:52;;;;;;;;;;;-0.90;99.90;;;;;;5052359;28;19932;-51
2023/03/02 02:59:27;;;;;;;;;;;-0.80;99.90;;;;;;5035470;28;19928;-49
2023/03/02 03:01:58;;;;;;;;;;;-0.80;99.90;;;;;;5035291;28;19920;-49
2023/03/02 03:04:28;;;;;;;;;;;-0.80;99.90;;;;;;5046895;28;19978;-50
2023/03/02 03:06:57;;;;;;;;;;;-0.70;99.90;;;;;;5052676;28;19931;-51
2023/03/02 03:09:24;;;;;;;;;;;-0.70;99.90;;;;;;5049226;28;20383;-48
2023/03/02 03:11:53;;;;;;;;;;;-0.70;99.90;;;;;;5036485;28;19952;-51
2023/03/02 03:14:23;;;;;;;;;;;-0.70;99.90;;;;;;5051645;28;20287;-50
2023/03/02 03:16:51;;;;;;;;;;;-0.70;99.90;;;;;;5034691;28;19921;-50
2023/03/02 03:19:22;;;;;;;;;;;-0.70;99.90;;;;;;5035180;28;19956;-49
2023/03/02 03:21:52;;;;;;;;;;;-0.70;99.90;;;;;;5051645;28;20019;-49
2023/03/02 03:24:20;;;;;;;;;;;-0.70;99.90;;;;;;5009384;28;19967;-51
2023/03/02 03:26:47;;;;;;;;;;;-0.70;99.90;;;;;;5032315;28;19921;-49
2023/03/02 03:29:16;;;;;;;;;;;-0.70;99.90;;;;;;5052821;28;19925;-50
2023/03/02 03:31:43;;;;;;;;;;;-0.60;99.90;;;;;;5035437;28;19921;-49
2023/03/02 03:34:11;;;;;;;;;;;-0.60;99.90;;;;;;5035100;28;19927;-49
2023/03/02 03:36:38;;;;;;;;;;;-0.60;99.90;;;;;;5035481;28;19925;-52
2023/03/02 03:39:05;;;;;;;;;;;-0.60;99.90;;;;;;5034553;28;19987;-52
2023/03/02 03:41:32;;;;;;;;;;;-0.70;99.90;;;;;;5040114;28;19921;-51
2023/03/02 03:43:59;;;;;;;;;;;-0.80;99.90;;;;;;5052705;28;19928;-51
2023/03/02 03:46:28;;;;;;;;;;;-0.90;99.90;;;;;;5033966;28;19920;-49
2023/03/02 03:48:56;;;;;;;;;;;-0.90;99.90;;;;;;5051351;28;19925;-49
2023/03/02 03:51:23;;;;;;;;;;;-0.90;99.90;;;;;;5040515;28;20334;-49
2023/03/02 03:53:59;;;;;;;;;;;-1.00;99.90;;;;;;5045768;28;20341;-50
2023/03/02 03:56:32;;;;;;;;;;;-1.00;99.90;;;;;;5051524;28;20007;-49
2023/03/02 03:59:06;;;;;;;;;;;-1.00;99.90;;;;;;5041460;28;19920;-52
2023/03/02 04:01:43;;;;;;;;;;;-0.90;99.90;;;;;;5046558;28;20012;-49
2023/03/02 04:04:15;;;;;;;;;;;-0.90;99.90;;;;;;5043250;28;19920;-50
2023/03/02 04:06:43;;;;;;;;;;;-0.90;99.90;;;;;;5034804;28;19920;-49
2023/03/02 04:09:11;;;;;;;;;;;-0.80;99.90;;;;;;5046443;28;19950;-50
2023/03/02 04:11:39;;;;;;;;;;;-0.80;99.90;;;;;;5052514;28;19924;-49
2023/03/02 04:14:06;;;;;;;;;;;-0.80;99.90;;;;;;5034290;28;19931;-49
2023/03/02 04:16:34;;;;;;;;;;;-0.80;99.90;;;;;;5034043;28;19927;-50
2023/03/02 04:19:01;;;;;;;;;;;-0.80;99.90;;;;;;5034046;28;19928;-50
2023/03/02 04:21:28;;;;;;;;;;;-0.70;99.90;;;;;;5047663;28;19921;-49
2023/03/02 04:23:55;;;;;;;;;;;-0.80;99.90;;;;;;5027155;28;19956;-50
2023/03/02 04:26:22;;;;;;;;;;;-0.80;99.90;;;;;;5050760;28;19920;-50
2023/03/02 04:28:49;;;;;;;;;;;-0.80;99.90;;;;;;5032910;28;19921;-50
2023/03/02 04:31:17;;;;;;;;;;;-0.80;99.90;;;;;;5007677;28;20016;-49
2023/03/02 04:33:44;;;;;;;;;;;-0.80;99.90;;;;;;5014392;28;19936;-49
2023/03/02 04:36:11;;;;;;;;;;;-0.90;99.90;;;;;;5015610;28;20012;-50
2023/03/02 04:38:37;;;;;;;;;;;-0.80;99.90;;;;;;5030496;28;19925;-52
2023/03/02 04:41:04;;;;;;;;;;;-0.80;99.90;;;;;;5035115;28;19924;-49
2023/03/02 04:43:31;;;;;;;;;;;-0.90;99.90;;;;;;5052076;28;20341;-49
2023/03/02 04:45:58;;;;;;;;;;;-0.90;99.90;;;;;;5051577;28;19920;-49
2023/03/02 04:48:25;;;;;;;;;;;-0.90;99.90;;;;;;5051516;28;19920;-49
2023/03/02 04:50:51;;;;;;;;;;;-0.90;99.90;;;;;;5059430;28;19970;-49
2023/03/02 04:53:18;;;;;;;;;;;-0.90;99.90;;;;;;5045109;28;19920;-49
2023/03/02 04:55:45;;;;;;;;;;;-0.80;99.90;;;;;;5051878;28;19921;-52
2023/03/02 04:58:11;;;;;;;;;;;-0.80;99.90;;;;;;5050669;28;19920;-51
2023/03/02 05:00:38;;;;;;;;;;;-0.80;99.90;;;;;;5051372;28;19974;-49
2023/03/02 05:03:05;;;;;;;;;;;-0.80;99.90;;;;;;5051212;28;19944;-49
2023/03/02 05:05:32;;;;;;;;;;;-0.80;99.90;;;;;;5051734;28;19975;-50
2023/03/02 05:07:59;;;;;;;;;;;-0.80;99.90;;;;;;5041984;28;20473;-53
2023/03/02 05:10:26;;;;;;;;;;;-0.70;99.90;;;;;;5037740;28;19925;-50
2023/03/02 05:13:03;;;;;;;;;;;-0.80;99.90;;;;;;5049012;28;20386;-50
2023/03/02 05:15:33;;;;;;;;;;;-0.80;99.90;;;;;;5050450;28;19924;-50
2023/03/02 05:18:00;;;;;;;;;;;-0.90;99.90;;;;;;5050990;28;19955;-50
2023/03/02 05:20:29;;;;;;;;;;;-0.90;99.90;;;;;;5048519;28;19921;-50
2023/03/02 05:22:57;;;;;;;;;;;-0.90;99.90;;;;;;5052942;28;20534;-49
2023/03/02 05:25:24;;;;;;;;;;;-0.90;99.90;;;;;;5048478;28;19964;-49
2023/03/02 05:27:51;;;;;;;;;;;-1.00;99.90;;;;;;5051252;28;19921;-49
2023/03/02 05:30:19;;;;;;;;;;;-1.00;99.90;;;;;;5049436;28;20035;-50
2023/03/02 05:32:45;;;;;;;;;;;-1.00;99.90;;;;;;5050886;28;19971;-49
2023/03/02 05:35:12;;;;;;;;;;;-1.00;99.90;;;;;;5049178;28;19921;-50
2023/03/02 05:37:41;;;;;;;;;;;-1.00;99.90;;;;;;5053690;28;19920;-51
2023/03/02 05:40:08;;;;;;;;;;;-1.00;99.90;;;;;;5049946;28;19952;-51
2023/03/02 05:42:35;;;;;;;;;;;-0.90;99.90;;;;;;5054464;28;19925;-50
2023/03/02 05:45:06;;;;;;;;;;;-0.90;99.90;;;;;;5053596;28;20280;-49
2023/03/02 05:47:33;;;;;;;;;;;-0.90;99.90;;;;;;5037052;28;19921;-50
2023/03/02 05:49:59;;;;;;;;;;;-0.90;99.90;;;;;;5053768;28;19947;-53
2023/03/02 05:52:26;;;;;;;;;;;-0.80;99.90;;;;;;5034597;28;19924;-51
2023/03/02 05:54:53;;;;;;;;;;;-0.80;99.90;;;;;;5054029;28;19920;-53
2023/03/02 05:57:19;;;;;;;;;;;-0.90;99.90;;;;;;5053677;28;19963;-52
2023/03/02 05:59:46;;;;;;;;;;;-0.80;99.90;;;;;;5036492;28;19950;-50
2023/03/02 06:02:13;;;;;;;;;;;-0.90;99.90;;;;;;5058142;28;19920;-51
2023/03/02 06:04:41;;;;;;;;;;;-0.80;99.90;;;;;;5053559;28;19924;-49
2023/03/02 06:07:09;;;;;;;;;;;-0.80;99.90;;;;;;5053712;28;19920;-53
2023/03/02 06:09:37;;;;;;;;;;;-0.80;99.90;;;;;;5053306;28;20394;-51
2023/03/02 06:12:04;;;;;;;;;;;-0.80;99.90;;;;;;5040180;28;19921;-52
2023/03/02 06:14:31;;;;;;;;;;;-0.70;99.90;;;;;;5037118;28;19935;-50
2023/03/02 06:16:57;;;;;;;;;;;-0.70;99.90;;;;;;5054502;28;19967;-52
2023/03/02 06:19:24;;;;;;;;;;;-0.70;99.90;;;;;;5052756;28;19920;-51
2023/03/02 06:21:51;;;;;;;;;;;-0.70;99.90;;;;;;5057468;28;20007;-49
2023/03/02 06:24:17;;;;;;;;;;;-0.70;99.90;;;;;;5054097;28;19921;-51
2023/03/02 06:26:44;;;;;;;;;;;-0.70;99.90;;;;;;5054373;28;19921;-53
2023/03/02 06:29:11;;;;;;;;;;;-0.70;99.90;;;;;;5052335;28;19935;-49
2023/03/02 06:31:38;;;;;;;;;;;-0.70;99.90;;;;;;5050319;28;19924;-49
2023/03/02 06:34:05;;;;;;;;;;;-0.70;99.90;;;;;;5037771;28;19925;-49
2023/03/02 06:36:32;;;;;;;;;;;-0.60;99.90;;;;;;5045172;28;20009;-49
2023/03/02 06:38:59;;;;;;;;;;;-0.60;99.90;;;;;;5025588;28;20298;-52
2023/03/02 06:41:26;;;;;;;;;;;-0.50;99.90;;;;;;5044489;28;20019;-51
2023/03/02 06:43:52;;;;;;;;;;;-0.50;99.90;;;;;;5045056;28;19971;-49
2023/03/02 06:46:19;;;;;;;;;;;-0.50;99.90;;;;;;5044382;28;20416;-54
2023/03/02 06:48:46;;;;;;;;;;;-0.60;99.90;;;;;;5042572;28;19932;-49
2023/03/02 06:51:12;;;;;;;;;;;-0.70;99.90;;;;;;5044597;28;20021;-49
2023/03/02 06:53:39;;;;;;;;;;;-0.70;99.90;;;;;;5044344;28;20371;-49
2023/03/02 06:56:06;;;;;;;;;;;-0.70;99.90;;;;;;5026391;28;19971;-51
2023/03/02 06:58:32;;;;;;;;;;;-0.70;99.90;;;;;;5044724;28;20383;-49
2023/03/02 07:00:59;;;;;;;;;;;-0.60;99.90;;;;;;5041742;28;19970;-50
2023/03/02 07:03:26;;;;;;;;;;;-0.60;99.90;;;;;;5044686;28;19936;-49
2023/03/02 07:05:53;;;;;;;;;;;-0.50;99.90;;;;;;5044654;28;19925;-50
2023/03/02 07:08:19;;;;;;;;;;;-0.40;99.90;;;;;;5043403;28;20246;-49
2023/03/02 07:10:46;;;;;;;;;;;-0.30;99.90;;;;;;5044750;28;20386;-52
2023/03/02 07:13:13;;;;;;;;;;;-0.30;99.90;;;;;;5042046;28;19959;-51
2023/03/02 07:15:39;;;;;;;;;;;-0.20;99.90;;;;;;5074681;22;19920;-49
2023/03/02 07:18:06;;;;;;;;;;;-0.10;99.90;;;;;;5091102;28;19974;-52
2023/03/02 07:20:33;;;;;;;;;;;0.00;99.90;;;;;;5103938;28;19978;-53
2023/03/02 07:22:59;;;;;;;;;;;0.10;99.90;;;;;;5113011;28;20323;-51
2023/03/02 07:25:26;;;;;;;;;;;0.10;99.90;;;;;;5092884;28;19965;-53
2023/03/02 07:27:52;;;;;;;;;;;0.20;99.90;;;;;;5130957;27;19988;-50
2023/03/02 07:30:20;;;;;;;;;;;0.30;99.90;;;;;;5118477;27;20381;-50
2023/03/02 07:32:47;;;;;;;;;;;0.40;99.90;;;;;;5125506;27;19972;-50
2023/03/02 07:35:15;;;;;;;;;;;0.50;99.90;;;;;;5112574;27;19920;-50
2023/03/02 07:37:43;;;;;;;;;;;0.60;99.90;;;;;;5113524;28;19919;-51
2023/03/02 07:40:10;;;;;;;;;;;0.70;99.90;;;;;;5112623;28;19954;-50
2023/03/02 07:42:37;;;;;;;;;;;0.90;99.90;;;;;;5113622;28;19931;-51
2023/03/02 07:45:05;;;;;;;;;;;1.00;99.90;;;;;;5103389;27;20014;-52
2023/03/02 07:47:32;;;;;;;;;;;1.10;99.90;;;;;;5111211;27;19985;-51
2023/03/02 07:49:59;;;;;;;;;;;1.10;99.90;;;;;;5112568;28;19919;-51
2023/03/02 07:52:27;;;;;;;;;;;1.20;99.90;;;;;;5112099;28;19966;-48
2023/03/02 07:54:53;;;;;;;;;;;1.30;99.90;;;;;;5113177;28;20439;-50
2023/03/02 07:57:20;;;;;;;;;;;1.30;99.90;;;;;;5122385;27;19968;-50
2023/03/02 07:59:47;;;;;;;;;;;1.30;99.90;;;;;;5123725;27;19969;-51
2023/03/02 08:02:14;;;;;;;;;;;1.30;99.90;;;;;;5118498;27;19924;-50
2023/03/02 08:04:41;;;;;;;;;;;1.40;99.90;;;;;;5112964;28;19955;-50
2023/03/02 08:07:08;;;;;;;;;;;1.50;99.90;;;;;;5111248;28;19919;-50
2023/03/02 08:09:36;;;;;;;;;;;1.50;99.90;;;;;;5111271;28;19924;-50
2023/03/02 08:12:03;;;;;;;;;;;1.70;99.90;;;;;;5112302;28;20067;-52
2023/03/02 08:14:30;;;;;;;;;;;1.90;99.90;;;;;;5094230;28;20537;-50
2023/03/02 08:16:57;;;;;;;;;;;2.00;99.90;;;;;;5111436;28;20324;-51
2023/03/02 08:19:25;;;;;;;;;;;2.20;99.90;;;;;;5112380;28;20036;-52
2023/03/02 08:21:51;;;;;;;;;;;2.30;99.90;;;;;;5112854;28;19920;-50
2023/03/02 08:24:18;;;;;;;;;;;2.30;99.90;;;;;;5112948;28;20327;-51
2023/03/02 08:26:45;;;;;;;;;;;2.40;99.90;;;;;;5105330;28;19973;-51
2023/03/02 08:29:11;;;;;;;;;;;2.50;99.90;;;;;;5104013;28;19973;-50
2023/03/02 08:31:38;;;;;;;;;;;2.70;99.90;;;;;;5112692;28;20392;-51
2023/03/02 08:34:04;;;;;;;;;;;2.80;99.90;;;;;;5112086;28;19924;-51
2023/03/02 08:36:31;;;;;;;;;;;2.80;99.90;;;;;;5106124;28;19920;-53
2023/03/02 08:38:58;;;;;;;;;;;2.70;99.90;;;;;;5104094;28;19920;-52
2023/03/02 08:41:25;;;;;;;;;;;2.60;99.90;;;;;;5112455;28;19969;-51
2023/03/02 08:43:53;;;;;;;;;;;2.60;99.90;;;;;;5112684;28;19950;-48
2023/03/02 08:46:20;;;;;;;;;;;2.50;99.90;;;;;;5107193;28;19993;-51
2023/03/02 08:48:48;;;;;;;;;;;2.70;99.90;;;;;;5108268;28;19950;-51
2023/03/02 08:51:16;;;;;;;;;;;2.80;99.90;;;;;;5111891;28;19919;-52
2023/03/02 08:53:45;;;;;;;;;;;3.00;99.90;;;;;;5111755;28;19955;-48
2023/03/02 08:56:22;;;;;;;;;;;3.00;99.90;;;;;;5108910;28;19920;-48
2023/03/02 08:58:49;;;;;;;;;;;3.10;99.90;;;;;;5109321;28;19923;-48
2023/03/02 09:01:18;;;;;;;;;;;3.20;99.90;;;;;;5106357;28;19973;-49
2023/03/02 09:03:45;;;;;;;;;;;3.30;99.90;;;;;;5111790;28;19919;-50
2023/03/02 09:06:12;;;;;;;;;;;3.50;99.90;;;;;;5111964;28;20274;-50
2023/03/02 09:08:39;;;;;;;;;;;3.50;99.90;;;;;;5111017;28;19926;-50
2023/03/02 09:11:05;;;;;;;;;;;3.50;99.90;;;;;;5098118;28;19955;-48
2023/03/02 09:13:32;;;;;;;;;;;3.40;99.90;;;;;;5111986;28;19924;-49
2023/03/02 09:16:00;;;;;;;;;;;3.50;99.90;;;;;;5120073;28;19919;-51
2023/03/02 09:18:27;;;;;;;;;;;3.60;99.90;;;;;;5110594;28;19951;-48
2023/03/02 09:20:55;;;;;;;;;;;3.80;99.90;;;;;;5110211;28;19974;-49
2023/03/02 09:23:23;;;;;;;;;;;3.90;99.90;;;;;;5111697;28;20397;-50
2023/03/02 09:25:50;;;;;;;;;;;3.80;99.90;;;;;;5110972;28;19965;-51
2023/03/02 09:28:17;;;;;;;;;;;3.80;99.90;;;;;;5111393;28;20300;-52
2023/03/02 09:30:55;;;;;;;;;;;4.00;99.90;;;;;;5111825;28;19923;-51
2023/03/02 09:33:23;;;;;;;;;;;4.30;99.90;;;;;;5112600;28;20160;-51
2023/03/02 09:35:49;;;;;;;;;;;4.50;99.90;;;;;;5112355;28;20369;-51
2023/03/02 09:38:17;;;;;;;;;;;4.70;99.90;;;;;;5110216;28;19920;-53
2023/03/02 09:40:56;;;;;;;;;;;4.80;99.90;;;;;;5111498;28;19942;-51
2023/03/02 09:43:43;;;;;;;;;;;5.10;99.90;;;;;;5111652;28;19963;-51
2023/03/02 09:46:15;;;;;;;;;;;5.10;99.90;;;;;;5060886;28;19919;-50
2023/03/02 09:48:47;;;;;;;;;;;5.20;99.90;;;;;;5115186;28;19955;-50
2023/03/02 09:51:19;;;;;;;;;;;5.10;99.90;;;;;;5117526;28;19919;-50
2023/03/02 09:53:51;;;;;;;;;;;5.00;99.90;;;;;;5111515;28;19927;-50
2023/03/02 09:56:18;;;;;;;;;;;5.10;99.90;;;;;;5111170;28;19920;-51
2023/03/02 09:58:48;;;;;;;;;;;5.10;99.90;;;;;;5114720;28;19919;-51
2023/03/02 10:01:20;;;;;;;;;;;5.30;99.90;;;;;;5120134;28;20444;-50
2023/03/02 10:03:51;;;;;;;;;;;5.40;99.90;;;;;;5111735;28;19963;-50
2023/03/02 10:06:18;;;;;;;;;;;5.50;99.90;;;;;;5111858;28;20449;-51
2023/03/02 10:08:45;;;;;;;;;;;5.60;99.90;;;;;;5115173;28;20332;-50
2023/03/02 10:11:14;;;;;;;;;;;5.70;99.90;;;;;;5111386;28;20408;-51
2023/03/02 10:13:56;;;;;;;;;;;5.70;99.90;;;;;;5111100;28;19951;-51
2023/03/02 10:16:43;;;;;;;;;;;5.80;99.90;;;;;;5110693;28;20336;-50
2023/03/02 10:19:25;;;;;;;;;;;5.80;99.90;;;;;;5112713;28;19973;-50
2023/03/02 10:21:59;;;;;;;;;;;5.90;99.90;;;;;;5108429;27;19930;-51
2023/03/02 10:24:34;;;;;;;;;;;5.90;99.90;;;;;;5114501;28;19973;-52
2023/03/02 10:27:21;;;;;;;;;;;5.90;99.90;;;;;;5133878;27;19969;-51
2023/03/02 10:30:05;;;;;;;;;;;5.90;99.90;;;;;;5106030;27;19920;-50
2023/03/02 10:32:34;;;;;;;;;;;6.00;99.90;;;;;;5109532;28;19927;-50
2023/03/02 10:35:11;;;;;;;;;;;6.00;99.90;;;;;;5122390;27;19928;-51
2023/03/02 10:37:37;;;;;;;;;;;6.00;99.90;;;;;;5118929;27;19981;-50
2023/03/02 10:40:04;;;;;;;;;;;6.10;99.90;;;;;;5114272;28;19926;-50
2023/03/02 10:42:34;;;;;;;;;;;6.00;99.90;;;;;;5114505;28;19960;-51
2023/03/02 10:45:13;;;;;;;;;;;6.10;99.90;;;;;;5096327;28;19981;-48
2023/03/02 10:47:40;;;;;;;;;;;6.20;99.90;;;;;;5093573;28;19920;-48
2023/03/02 10:50:22;;;;;;;;;;;6.20;99.90;;;;;;5114208;28;19920;-53
2023/03/02 10:52:50;;;;;;;;;;;6.20;99.90;;;;;;5114310;28;19969;-49
2023/03/02 10:55:26;;;;;;;;;;;6.30;99.90;;;;;;5113836;28;20429;-50
2023/03/02 10:57:59;;;;;;;;;;;6.30;99.90;;;;;;5117330;27;19926;-50
2023/03/02 11:00:27;;;;;;;;;;;6.40;99.90;;;;;;5127676;27;19920;-51
2023/03/02 11:02:56;;;;;;;;;;;6.40;99.90;;;;;;5113941;28;19962;-51
2023/03/02 11:05:27;;;;;;;;;;;6.40;99.90;;;;;;5128021;27;19923;-50
2023/03/02 11:07:55;;;;;;;;;;;6.50;99.90;;;;;;5134130;27;19919;-52
2023/03/02 11:10:23;;;;;;;;;;;6.50;99.90;;;;;;5115149;27;20335;-50
2023/03/02 11:12:51;;;;;;;;;;;6.70;99.90;;;;;;5123832;27;19927;-50
2023/03/02 11:15:36;;;;;;;;;;;6.60;99.90;;;;;;5134385;27;19923;-51
2023/03/02 11:18:06;;;;;;;;;;;6.40;99.90;;;;;;5115904;27;20547;-51
2023/03/02 11:20:41;;;;;;;;;;;6.20;99.90;;;;;;5112485;28;19920;-50
2023/03/02 11:23:17;;;;;;;;;;;5.90;99.90;;;;;;5117544;27;19958;-51
2023/03/02 11:25:50;;;;;;;;;;;5.80;99.90;;;;;;5134338;27;19923;-51
2023/03/02 11:28:26;;;;;;;;;;;5.70;99.90;;;;;;5134492;27;19919;-51
2023/03/02 11:30:55;;;;;;;;;;;5.60;99.90;;;;;;5111853;27;19927;-51
2023/03/02 11:33:28;;;;;;;;;;;5.70;99.90;;;;;;5127104;27;20000;-50
2023/03/02 11:36:01;;;;;;;;;;;5.80;99.90;;;;;;5122712;27;19920;-50
2023/03/02 11:38:31;;;;;;;;;;;6.00;99.90;;;;;;5113263;28;19919;-50
2023/03/02 11:41:01;;;;;;;;;;;6.10;99.90;;;;;;5112916;28;19920;-51
2023/03/02 11:43:28;;;;;;;;;;;6.20;99.90;;;;;;5112903;28;19958;-50
2023/03/02 11:45:57;;;;;;;;;;;6.30;99.90;;;;;;5114673;27;19949;-50
2023/03/02 11:48:45;;;;;;;;;;;6.20;99.90;;;;;;5127924;27;19919;-50
2023/03/02 11:51:14;;;;;;;;;;;6.10;99.90;;;;;;5119273;27;20021;-52
2023/03/02 11:54:01;;;;;;;;;;;6.00;99.90;;;;;;5113300;28;19958;-50
2023/03/02 11:56:30;;;;;;;;;;;5.90;99.90;;;;;;5106389;28;19927;-51
2023/03/02 11:58:58;;;;;;;;;;;5.90;99.90;;;;;;5112668;28;19966;-51
2023/03/02 12:01:26;;;;;;;;;;;5.90;99.90;;;;;;5113360;27;19920;-50
2023/03/02 12:03:53;;;;;;;;;;;5.90;99.90;;;;;;5094674;28;20331;-52
2023/03/02 12:06:20;;;;;;;;;;;6.00;99.90;;;;;;5112729;28;19955;-51
2023/03/02 12:08:48;;;;;;;;;;;6.10;99.90;;;;;;5112099;28;19965;-50
2023/03/02 12:11:15;;;;;;;;;;;6.40;99.90;;;;;;5114251;27;19920;-50
2023/03/02 12:13:43;;;;;;;;;;;7.80;99.90;;;;;;5130339;27;19964;-52
2023/03/02 12:16:20;;;;;;;;;;;7.10;99.90;;;;;;5129820;27;19919;-50
2023/03/02 12:18:47;;;;;;;;;;;7.50;99.90;;;;;;5112331;28;20003;-49
2023/03/02 12:21:21;;;;;;;;;;;7.70;99.90;;;;;;5112169;28;19966;-51
2023/03/02 12:23:47;;;;;;;;;;;7.90;99.90;;;;;;5113072;28;19923;-52
2023/03/02 12:26:20;;;;;;;;;;;8.10;99.90;;;;;;5113484;27;19920;-51
2023/03/02 12:29:21;;;;;;;;;;;8.10;99.90;;;;;;5111191;28;20339;-50
2023/03/02 12:31:50;;;;;;;;;;;8.20;99.90;;;;;;5112443;28;20026;-51
2023/03/02 12:34:23;;;;;;;;;;;8.20;99.90;;;;;;5112354;28;19931;-50
2023/03/02 12:36:52;;;;;;;;;;;8.20;99.90;;;;;;5112999;27;19920;-51
2023/03/02 12:39:35;;;;;;;;;;;8.00;99.90;;;;;;5105384;28;20439;-50
2023/03/02 12:42:05;;;;;;;;;;;7.70;99.90;;;;;;5112325;28;20433;-50
2023/03/02 12:44:42;;;;;;;;;;;7.40;99.90;;;;;;5111102;28;19923;-52
2023/03/02 12:47:14;;;;;;;;;;;7.30;99.90;;;;;;5112159;28;19919;-50
2023/03/02 12:49:52;;;;;;;;;;;6.80;99.90;;;;;;5110789;28;19935;-50
2023/03/02 12:52:21;;;;;;;;;;;7.00;99.90;;;;;;5111230;28;19973;-50
2023/03/02 12:54:58;;;;;;;;;;;7.00;99.90;;;;;;5113816;27;19919;-50
2023/03/02 12:57:24;;;;;;;;;;;7.10;99.90;;;;;;5091769;28;19946;-50
2023/03/02 12:59:52;;;;;;;;;;;7.30;99.90;;;;;;5092586;28;19920;-51
2023/03/02 13:02:19;;;;;;;;;;;7.40;99.90;;;;;;5103825;28;19966;-51
2023/03/02 13:04:52;;;;;;;;;;;7.60;99.90;;;;;;5111198;28;20381;-51
2023/03/02 13:07:21;;;;;;;;;;;7.60;99.90;;;;;;5104011;28;19923;-50
2023/03/02 13:09:48;;;;;;;;;;;7.70;99.90;;;;;;5111103;28;19920;-50
2023/03/02 13:12:24;;;;;;;;;;;7.60;99.90;;;;;;5111788;28;19923;-50
2023/03/02 13:14:52;;;;;;;;;;;7.60;99.90;;;;;;5112818;28;19920;-51
2023/03/02 13:21:26;;;;;;;;;;;7.70;99.90;;;;;;5130866;28;20369;-52
2023/03/02 13:23:53;;;;;;;;;;;7.80;99.90;;;;;;5148735;27;19919;-50
2023/03/02 13:26:23;;;;;;;;;;;7.70;99.90;;;;;;5145914;27;19928;-51
2023/03/02 13:28:59;;;;;;;;;;;7.60;99.90;;;;;;5131765;28;19966;-49
2023/03/02 13:31:26;;;;;;;;;;;7.60;99.90;;;;;;5132341;27;19919;-49
2023/03/02 13:33:54;;;;;;;;;;;7.70;99.90;;;;;;5123768;28;19926;-50
2023/03/02 13:36:25;;;;;;;;;;;7.60;99.90;;;;;;5132249;28;19919;-50
2023/03/02 13:38:58;;;;;;;;;;;7.60;99.90;;;;;;5130319;27;20025;-51
2023/03/02 13:41:31;;;;;;;;;;;7.60;99.90;;;;;;5111667;28;19920;-49
2023/03/02 13:43:58;;;;;;;;;;;7.60;99.90;;;;;;5111518;28;19973;-50
2023/03/02 13:46:27;;;;;;;;;;;7.70;99.90;;;;;;5111725;28;19920;-49
2023/03/02 13:48:55;;;;;;;;;;;7.60;99.90;;;;;;5112209;28;19919;-50
2023/03/02 13:51:37;;;;;;;;;;;7.40;99.90;;;;;;5116750;27;19926;-50
2023/03/02 13:54:09;;;;;;;;;;;7.40;99.90;;;;;;5111560;28;19920;-51
2023/03/02 13:56:37;;;;;;;;;;;7.40;99.90;;;;;;5115568;28;20343;-50
2023/03/02 13:59:04;;;;;;;;;;;7.40;99.90;;;;;;5135261;27;19958;-48
2023/03/02 14:01:31;;;;;;;;;;;7.50;99.90;;;;;;5121932;27;19942;-48
2023/03/02 14:03:59;;;;;;;;;;;7.70;99.90;;;;;;5115564;28;19996;-48
2023/03/02 14:06:26;;;;;;;;;;;7.60;99.90;;;;;;5118221;27;19919;-50
2023/03/02 14:08:52;;;;;;;;;;;7.60;99.90;;;;;;5115019;28;19955;-50
2023/03/02 14:11:19;;;;;;;;;;;7.50;99.90;;;;;;5114849;28;19972;-50
2023/03/02 14:13:51;;;;;;;;;;;7.60;99.90;;;;;;5115428;28;19920;-50
2023/03/02 14:16:18;;;;;;;;;;;7.60;99.90;;;;;;5127089;27;19927;-48
2023/03/02 14:18:48;;;;;;;;;;;7.70;99.90;;;;;;5131016;27;19923;-49
2023/03/02 14:21:17;;;;;;;;;;;7.80;99.90;;;;;;5120352;27;19964;-50
2023/03/02 14:23:44;;;;;;;;;;;7.90;99.90;;;;;;5115148;28;19962;-48
2023/03/02 14:26:17;;;;;;;;;;;7.90;99.90;;;;;;5113429;28;19923;-47
2023/03/02 14:28:43;;;;;;;;;;;8.00;99.90;;;;;;5128618;27;19949;-48
2023/03/02 14:31:11;;;;;;;;;;;8.20;99.90;;;;;;5127178;27;20364;-48
2023/03/02 14:33:38;;;;;;;;;;;8.20;99.90;;;;;;5135383;27;20011;-48
2023/03/02 14:36:05;;;;;;;;;;;8.20;99.90;;;;;;5132308;27;19998;-49
2023/03/02 14:38:31;;;;;;;;;;;8.30;99.90;;;;;;5114448;28;19973;-51
2023/03/02 14:40:58;;;;;;;;;;;8.20;99.90;;;;;;5114066;28;20000;-51
2023/03/02 14:43:25;;;;;;;;;;;8.20;99.90;;;;;;5114885;28;19926;-47